Terminal Aerodrome Forecast
Issued by NWS

Home | Current Version | Previous Version | Text Only | Print | Product List | Glossary On
Versions: 1 2 3 4 5 6 7 8 9 10 11 12 13 14 15 16 17 18 19 20
000
FTUS45 KSLC 171618 AAC
TAFLGU
TAF AMD
KLGU 171618Z 1716/1812 35007KT P6SM -SHRA SCT020 BKN040
     FM171800 32010G18KT P6SM -SHRASN SCT015 OVC025
     FM172100 30012G22KT P6SM VCSH BKN040
     FM180200 VRB06KT P6SM SCT070=

USA.gov is the U.S. government's official web portal to all federal, state and local government web resources and services.